createdAt,value
2022-08-18T00:02:17.595Z,100.00
2022-08-18T00:04:49.674Z,100.00
2022-08-18T00:07:25.079Z,100.00
2022-08-18T00:09:52.450Z,100.00
2022-08-18T00:12:25.073Z,100.00
2022-08-18T00:14:53.686Z,100.00
2022-08-18T00:17:21.372Z,100.00
2022-08-18T00:19:48.566Z,100.00
2022-08-18T00:22:20.044Z,100.00
2022-08-18T00:24:54.138Z,100.00
2022-08-18T00:27:28.590Z,100.00
2022-08-18T00:30:02.387Z,100.00
2022-08-18T00:32:33.872Z,100.00
2022-08-18T00:35:18.258Z,100.00
2022-08-18T00:37:45.747Z,100.00
2022-08-18T00:40:18.929Z,100.00
2022-08-18T00:43:02.453Z,100.00
2022-08-18T00:45:36.507Z,100.00
2022-08-18T00:48:10.364Z,100.00
2022-08-18T00:50:54.337Z,100.00
2022-08-18T00:53:43.951Z,100.00
2022-08-18T00:56:17.526Z,100.00
2022-08-18T00:59:04.274Z,100.00
2022-08-18T01:01:33.210Z,100.00
2022-08-18T01:04:21.957Z,100.00
2022-08-18T01:06:55.888Z,100.00
2022-08-18T01:09:23.420Z,100.00
2022-08-18T01:11:51.425Z,100.00
2022-08-18T01:14:19.025Z,100.00
2022-08-18T01:17:06.135Z,100.00
2022-08-18T01:19:52.562Z,100.00
2022-08-18T01:22:39.066Z,100.00
2022-08-18T01:25:26.539Z,100.00
2022-08-18T01:27:57.114Z,100.00
2022-08-18T01:30:29.034Z,100.00
2022-08-18T01:32:56.361Z,100.00
2022-08-18T01:35:26.691Z,100.00
2022-08-18T01:37:54.687Z,100.00
2022-08-18T01:41:25.599Z,100.00
2022-08-18T01:43:11.830Z,100.00
2022-08-18T01:45:39.228Z,100.00
2022-08-18T01:48:06.086Z,100.00
2022-08-18T01:50:35.108Z,100.00
2022-08-18T01:53:05.575Z,100.00
2022-08-18T01:55:37.062Z,100.00
2022-08-18T01:58:05.444Z,100.00
2022-08-18T02:00:32.742Z,100.00
2022-08-18T02:03:02.962Z,100.00
2022-08-18T02:05:41.665Z,100.00
2022-08-18T02:08:12.344Z,100.00
2022-08-18T02:10:40.174Z,100.00
2022-08-18T02:13:07.164Z,100.00
2022-08-18T02:15:34.936Z,100.00
2022-08-18T02:18:01.790Z,100.00
2022-08-18T02:20:28.644Z,100.00
2022-08-18T02:22:55.626Z,100.00
2022-08-18T02:25:22.936Z,100.00
2022-08-18T02:27:50.383Z,100.00
2022-08-18T02:30:19.167Z,100.00
2022-08-18T02:32:46.025Z,100.00
2022-08-18T02:35:13.048Z,100.00
2022-08-18T02:37:42.773Z,100.00
2022-08-18T02:40:14.708Z,100.00
2022-08-18T02:42:42.850Z,100.00
2022-08-18T02:45:10.410Z,100.00
2022-08-18T02:47:37.287Z,100.00
2022-08-18T02:50:05.080Z,100.00
2022-08-18T02:52:32.704Z,100.00
2022-08-18T02:55:03.299Z,100.00
2022-08-18T02:57:31.028Z,100.00
2022-08-18T02:59:59.701Z,100.00
2022-08-18T03:02:27.003Z,100.00
2022-08-18T03:04:53.831Z,100.00
2022-08-18T03:07:20.698Z,100.00
2022-08-18T03:09:47.607Z,100.00
2022-08-18T03:12:14.458Z,100.00
2022-08-18T03:14:41.343Z,100.00
2022-08-18T03:17:09.588Z,100.00
2022-08-18T03:19:37.411Z,100.00
2022-08-18T03:22:05.885Z,100.00
2022-08-18T03:24:52.795Z,100.00
2022-08-18T03:27:19.618Z,100.00
2022-08-18T03:29:46.438Z,100.00
2022-08-18T03:32:13.270Z,100.00
2022-08-18T03:34:40.133Z,100.00
2022-08-18T03:37:07.363Z,100.00
2022-08-18T03:39:34.215Z,100.00
2022-08-18T03:42:02.320Z,100.00
2022-08-18T03:44:32.621Z,100.00
2022-08-18T03:47:03.063Z,100.00
2022-08-18T03:49:32.926Z,100.00
2022-08-18T03:52:00.836Z,100.00
2022-08-18T03:54:29.833Z,100.00
2022-08-18T03:56:56.687Z,100.00
2022-08-18T03:59:26.979Z,100.00
2022-08-18T04:01:55.415Z,100.00
2022-08-18T04:04:26.293Z,100.00
2022-08-18T04:06:58.477Z,100.00
2022-08-18T04:09:29.284Z,100.00
2022-08-18T04:11:57.518Z,100.00
2022-08-18T04:14:28.733Z,100.00
2022-08-18T04:16:55.609Z,100.00
2022-08-18T04:19:27.185Z,100.00
2022-08-18T04:21:58.298Z,100.00
2022-08-18T04:24:28.160Z,100.00
2022-08-18T04:26:57.368Z,100.00
2022-08-18T04:29:24.769Z,100.00
2022-08-18T04:31:52.135Z,100.00
2022-08-18T04:34:21.222Z,100.00
2022-08-18T04:36:53.608Z,100.00
2022-08-18T04:39:21.766Z,100.00
2022-08-18T04:41:49.171Z,100.00
2022-08-18T04:44:17.544Z,100.00
2022-08-18T04:46:54.442Z,100.00
2022-08-18T04:49:25.748Z,100.00
2022-08-18T04:52:34.204Z,100.00
2022-08-18T04:55:01.516Z,100.00
2022-08-18T04:57:29.129Z,100.00
2022-08-18T05:00:00.628Z,100.00
2022-08-18T05:02:27.518Z,100.00
2022-08-18T05:04:54.344Z,100.00
2022-08-18T05:07:25.556Z,100.00
2022-08-18T05:09:54.046Z,100.00
2022-08-18T05:12:26.145Z,100.00
2022-08-18T05:14:54.124Z,100.00
2022-08-18T05:17:21.058Z,100.00
2022-08-18T05:19:48.556Z,100.00
2022-08-18T05:22:22.340Z,100.00
2022-08-18T05:24:55.763Z,100.00
2022-08-18T05:27:22.580Z,100.00
2022-08-18T05:29:51.622Z,100.00
2022-08-18T05:32:37.232Z,100.00
2022-08-18T05:35:12.223Z,100.00
2022-08-18T05:37:47.292Z,100.00
2022-08-18T05:40:15.456Z,100.00
2022-08-18T05:42:42.973Z,100.00
2022-08-18T05:45:17.499Z,100.00
2022-08-18T05:47:44.913Z,100.00
2022-08-18T05:50:19.297Z,100.00
2022-08-18T05:52:59.173Z,100.00
2022-08-18T05:56:03.027Z,100.00
2022-08-18T05:58:42.727Z,100.00
2022-08-18T06:01:20.254Z,100.00
2022-08-18T06:03:54.749Z,100.00
2022-08-18T06:06:29.740Z,100.00
2022-08-18T06:09:20.093Z,100.00
2022-08-18T06:11:47.259Z,100.00
2022-08-18T06:14:14.471Z,100.00
2022-08-18T06:17:18.781Z,100.00
2022-08-18T06:20:04.183Z,100.00
2022-08-18T06:22:59.552Z,100.00
2022-08-18T06:25:38.069Z,100.00
2022-08-18T06:28:13.960Z,100.00
2022-08-18T06:31:06.653Z,100.00
2022-08-18T06:34:00.966Z,100.00
2022-08-18T06:37:00.091Z,100.00
2022-08-18T06:39:36.511Z,100.00
2022-08-18T06:42:05.563Z,100.00
2022-08-18T06:44:37.074Z,100.00
2022-08-18T06:47:31.955Z,100.00
2022-08-18T06:50:08.494Z,100.00
2022-08-18T06:52:39.514Z,100.00
2022-08-18T06:55:15.932Z,100.00
2022-08-18T06:58:00.162Z,100.00
2022-08-18T07:00:32.657Z,100.00
2022-08-18T07:03:16.629Z,100.00
2022-08-18T07:06:06.651Z,100.00
2022-08-18T07:08:43.476Z,100.00
2022-08-18T07:11:33.133Z,100.00
2022-08-18T07:14:22.109Z,100.00
2022-08-18T07:17:04.884Z,100.00
2022-08-18T07:19:33.438Z,100.00
2022-08-18T07:22:14.825Z,100.00
2022-08-18T07:24:54.283Z,100.00
2022-08-18T07:27:46.021Z,100.00
2022-08-18T07:30:29.592Z,100.00
2022-08-18T07:33:21.195Z,100.00
2022-08-18T07:35:56.941Z,100.00
2022-08-18T07:38:44.018Z,100.00
2022-08-18T07:41:22.734Z,100.00
2022-08-18T07:43:52.125Z,100.00
2022-08-18T07:46:38.018Z,100.00
2022-08-18T07:49:07.042Z,100.00
2022-08-18T07:51:52.603Z,100.00
2022-08-18T07:54:49.512Z,100.00
2022-08-18T07:57:42.961Z,100.00
2022-08-18T08:00:41.491Z,100.00
2022-08-18T08:03:55.270Z,100.00
2022-08-18T08:06:55.367Z,100.00
2022-08-18T08:09:52.384Z,100.00
2022-08-18T08:12:42.417Z,100.00
2022-08-18T08:15:27.397Z,100.00
2022-08-18T08:18:12.059Z,100.00
2022-08-18T08:20:55.760Z,100.00
2022-08-18T08:24:19.150Z,100.00
2022-08-18T08:27:01.513Z,100.00
2022-08-18T08:29:43.347Z,100.00
2022-08-18T08:32:28.909Z,100.00
2022-08-18T08:35:49.578Z,100.00
2022-08-18T08:38:39.164Z,100.00
2022-08-18T08:41:14.475Z,100.00
2022-08-18T08:43:49.618Z,100.00
2022-08-18T08:46:23.559Z,100.00
2022-08-18T08:48:59.862Z,100.00
2022-08-18T08:51:56.778Z,100.00
2022-08-18T08:55:11.574Z,100.00
2022-08-18T08:58:09.960Z,100.00
2022-08-18T09:00:39.935Z,100.00
2022-08-18T09:04:30.015Z,100.00
2022-08-18T09:08:33.267Z,100.00
2022-08-18T09:12:28.611Z,100.00
2022-08-18T09:16:21.511Z,100.00
2022-08-18T09:19:13.731Z,100.00
2022-08-18T09:22:29.865Z,100.00
2022-08-18T09:24:57.719Z,100.00
2022-08-18T09:28:09.470Z,100.00
2022-08-18T09:30:49.241Z,100.00
2022-08-18T09:33:45.744Z,100.00
2022-08-18T09:36:54.832Z,100.00
2022-08-18T09:39:57.204Z,100.00
2022-08-18T09:42:51.493Z,100.00
2022-08-18T09:45:33.582Z,100.00
2022-08-18T09:48:08.791Z,100.00
2022-08-18T09:50:55.437Z,100.00
2022-08-18T09:53:53.625Z,100.00
2022-08-18T09:56:53.504Z,100.00
2022-08-18T10:02:29.295Z,100.00
2022-08-18T10:05:21.086Z,100.00
2022-08-18T10:08:14.647Z,100.00
2022-08-18T10:10:59.934Z,100.00
2022-08-18T10:13:56.955Z,100.00
2022-08-18T10:17:23.796Z,100.00
2022-08-18T10:20:05.578Z,100.00
2022-08-18T10:22:44.080Z,100.00
2022-08-18T10:25:22.639Z,100.00
2022-08-18T10:27:58.094Z,100.00
2022-08-18T10:30:34.180Z,100.00
2022-08-18T10:33:17.167Z,100.00
2022-08-18T10:35:59.231Z,100.00
2022-08-18T10:38:49.195Z,100.00
2022-08-18T10:41:31.005Z,100.00
2022-08-18T10:44:00.443Z,100.00
2022-08-18T10:46:39.629Z,100.00
2022-08-18T10:49:13.520Z,100.00
2022-08-18T10:52:02.172Z,100.00
2022-08-18T10:54:54.494Z,100.00
2022-08-18T10:57:31.021Z,100.00
2022-08-18T11:01:00.882Z,100.00
2022-08-18T11:04:13.920Z,100.00
2022-08-18T11:06:47.864Z,100.00
2022-08-18T11:09:26.635Z,100.00
2022-08-18T11:11:59.756Z,100.00
2022-08-18T11:15:26.816Z,100.00
2022-08-18T11:18:21.449Z,100.00
2022-08-18T11:20:48.794Z,100.00
2022-08-18T11:23:17.656Z,100.00
2022-08-18T11:25:45.358Z,100.00
2022-08-18T11:28:30.361Z,100.00
2022-08-18T11:30:59.162Z,99.42
2022-08-18T11:33:27.796Z,93.52
2022-08-18T11:36:01.220Z,86.11
2022-08-18T11:38:31.112Z,78.75
2022-08-18T11:41:33.900Z,67.15
2022-08-18T11:44:22.158Z,67.19
2022-08-18T11:46:54.907Z,67.23
2022-08-18T11:49:33.691Z,65.26
2022-08-18T11:52:32.746Z,66.98
2022-08-18T11:55:16.905Z,68.17
2022-08-18T12:00:47.194Z,78.50
2022-08-18T12:03:30.335Z,78.39
2022-08-18T12:06:09.897Z,77.00
2022-08-18T12:09:01.783Z,81.12
2022-08-18T12:11:35.848Z,77.51
2022-08-18T12:14:32.501Z,79.20
2022-08-18T12:17:02.282Z,81.32
2022-08-18T12:19:31.005Z,83.79
2022-08-18T12:22:01.930Z,79.43
2022-08-18T12:24:39.399Z,80.01
2022-08-18T12:27:20.524Z,81.52
2022-08-18T12:29:53.644Z,81.52
2022-08-18T12:32:48.977Z,82.70
2022-08-18T12:35:11.977Z,80.69
2022-08-18T12:40:31.766Z,81.64
2022-08-18T12:42:58.629Z,81.20
2022-08-18T12:45:27.911Z,82.77
2022-08-18T12:47:55.884Z,83.67
2022-08-18T12:50:31.423Z,81.47
2022-08-18T12:53:01.983Z,81.76
2022-08-18T12:55:35.569Z,78.54
2022-08-18T12:58:05.286Z,77.08
2022-08-18T13:00:32.785Z,77.12
2022-08-18T13:02:59.903Z,78.66
2022-08-18T13:05:30.094Z,78.00
2022-08-18T13:08:04.585Z,79.93
2022-08-18T13:10:44.977Z,77.70
2022-08-18T13:13:15.413Z,79.16
2022-08-18T13:15:55.323Z,78.27
2022-08-18T13:18:28.994Z,78.89
2022-08-18T13:20:58.476Z,80.86
2022-08-18T13:23:27.536Z,81.56
2022-08-18T13:26:01.790Z,80.49
2022-08-18T13:28:35.823Z,78.96
2022-08-18T13:31:16.860Z,77.07
2022-08-18T13:33:56.717Z,80.06
2022-08-18T13:36:44.511Z,77.77
2022-08-18T13:39:18.542Z,79.06
2022-08-18T13:41:48.972Z,77.00
2022-08-18T13:44:18.601Z,79.29
2022-08-18T13:46:48.130Z,78.21
2022-08-18T13:49:18.604Z,76.91
2022-08-18T13:51:59.070Z,77.55
2022-08-18T13:54:35.126Z,76.64
2022-08-18T13:57:04.190Z,76.59
2022-08-18T13:59:33.026Z,77.73
2022-08-18T14:02:09.227Z,79.71
2022-08-18T14:04:38.344Z,77.14
2022-08-18T14:07:11.007Z,77.26
2022-08-18T14:09:39.491Z,78.00
2022-08-18T14:12:22.527Z,78.57
2022-08-18T14:14:55.019Z,77.15
2022-08-18T14:17:24.849Z,71.10
2022-08-18T14:20:15.522Z,73.82
2022-08-18T14:23:14.018Z,74.82
2022-08-18T14:26:07.556Z,74.74
2022-08-18T14:28:35.143Z,75.19
2022-08-18T14:31:05.276Z,77.13
2022-08-18T14:33:50.326Z,77.02
2022-08-18T14:36:19.966Z,76.90
2022-08-18T14:38:46.788Z,78.17
2022-08-18T14:41:19.303Z,76.53
2022-08-18T14:44:10.365Z,75.37
2022-08-18T14:46:34.756Z,76.35
2022-08-18T14:49:04.010Z,77.23
2022-08-18T14:51:33.474Z,77.63
2022-08-18T14:54:01.587Z,77.73
2022-08-18T14:56:29.630Z,77.43
2022-08-18T14:58:56.890Z,78.37
2022-08-18T15:01:24.521Z,77.96
2022-08-18T15:03:54.396Z,79.04
2022-08-18T15:06:22.911Z,78.29
2022-08-18T15:08:54.829Z,78.33
2022-08-18T15:11:24.668Z,79.90
2022-08-18T15:13:55.112Z,78.94
2022-08-18T15:16:31.650Z,79.43
2022-08-18T15:19:00.476Z,78.62
2022-08-18T15:21:47.146Z,78.92
2022-08-18T15:24:39.675Z,79.59
2022-08-18T15:27:13.317Z,79.70
2022-08-18T15:29:46.334Z,80.00
2022-08-18T15:32:15.263Z,80.11
2022-08-18T15:34:47.342Z,79.31
2022-08-18T15:37:22.157Z,79.88
2022-08-18T15:40:30.246Z,79.34
2022-08-18T15:43:01.594Z,80.27
2022-08-18T15:45:35.579Z,79.26
2022-08-18T15:48:03.732Z,79.95
2022-08-18T15:50:31.134Z,78.75
2022-08-18T15:53:03.902Z,78.53
2022-08-18T15:55:39.100Z,78.78
2022-08-18T15:58:11.183Z,77.65
2022-08-18T16:00:45.812Z,79.26
2022-08-18T16:03:15.164Z,76.25
2022-08-18T16:05:53.349Z,77.84
2022-08-18T16:08:25.417Z,78.56
2022-08-18T16:10:54.130Z,78.64
2022-08-18T16:13:22.659Z,78.58
2022-08-18T16:15:50.256Z,76.59
2022-08-18T16:18:20.808Z,77.70
2022-08-18T16:20:48.223Z,78.34
2022-08-18T16:23:17.543Z,77.87
2022-08-18T16:25:45.165Z,77.79
2022-08-18T16:28:13.294Z,78.00
2022-08-18T16:30:41.137Z,78.28
2022-08-18T16:33:08.426Z,78.61
2022-08-18T16:35:37.315Z,79.10
2022-08-18T16:38:08.720Z,77.63
2022-08-18T16:40:36.518Z,77.85
2022-08-18T16:43:03.955Z,77.55
2022-08-18T16:45:32.906Z,76.50
2022-08-18T16:48:00.533Z,76.84
2022-08-18T16:50:28.224Z,76.73
2022-08-18T16:52:55.707Z,76.46
2022-08-18T16:55:22.888Z,77.43
2022-08-18T16:58:10.622Z,77.04
2022-08-18T17:00:57.847Z,76.75
2022-08-18T17:03:43.750Z,76.77
2022-08-18T17:06:15.216Z,77.35
2022-08-18T17:08:43.932Z,77.26
2022-08-18T17:11:16.115Z,76.87
2022-08-18T17:13:44.241Z,77.53
2022-08-18T17:16:12.318Z,77.40
2022-08-18T17:18:39.706Z,77.32
2022-08-18T17:21:10.133Z,76.99
2022-08-18T17:23:39.105Z,77.35
2022-08-18T17:26:16.454Z,77.91
2022-08-18T17:29:18.914Z,80.37
2022-08-18T17:31:54.278Z,82.88
2022-08-18T17:34:39.442Z,84.64
2022-08-18T17:37:11.221Z,86.99
2022-08-18T17:39:44.891Z,88.54
2022-08-18T17:42:26.715Z,90.01
2022-08-18T17:45:06.554Z,91.48
2022-08-18T17:47:40.651Z,91.54
2022-08-18T17:50:41.099Z,92.45
2022-08-18T17:53:09.967Z,93.44
2022-08-18T17:55:45.916Z,94.46
2022-08-18T17:58:31.877Z,95.27
2022-08-18T18:00:58.661Z,96.37
2022-08-18T18:03:28.287Z,96.49
2022-08-18T18:06:18.711Z,97.85
2022-08-18T18:09:00.685Z,98.19
2022-08-18T18:11:48.032Z,98.09
2022-08-18T18:14:27.783Z,98.75
2022-08-18T18:17:19.032Z,98.85
2022-08-18T18:19:49.973Z,98.65
2022-08-18T18:22:26.976Z,98.32
2022-08-18T18:25:06.543Z,98.14
2022-08-18T18:27:36.926Z,99.13
2022-08-18T18:30:28.173Z,99.35
2022-08-18T18:33:13.178Z,100.00
2022-08-18T18:35:57.760Z,99.15
2022-08-18T18:38:30.608Z,99.32
2022-08-18T18:41:18.033Z,99.70
2022-08-18T18:43:48.883Z,100.00
2022-08-18T18:46:18.801Z,100.00
2022-08-18T18:49:09.514Z,100.00
2022-08-18T18:51:54.368Z,100.00
2022-08-18T18:54:43.149Z,100.00
2022-08-18T18:58:03.050Z,100.00
2022-08-18T19:00:54.221Z,100.00
2022-08-18T19:03:43.175Z,100.00
2022-08-18T19:06:46.881Z,100.00
2022-08-18T19:09:36.520Z,100.00
2022-08-18T19:12:19.041Z,100.00
2022-08-18T19:15:00.285Z,100.00
2022-08-18T19:17:45.723Z,100.00
2022-08-18T19:20:28.914Z,100.00
2022-08-18T19:23:42.558Z,100.00
2022-08-18T19:26:11.143Z,100.00
2022-08-18T19:29:11.933Z,100.00
2022-08-18T19:32:07.657Z,100.00
2022-08-18T19:34:51.176Z,100.00
2022-08-18T19:37:38.268Z,100.00
2022-08-18T19:40:24.396Z,100.00
2022-08-18T19:43:38.431Z,100.00
2022-08-18T19:46:23.097Z,100.00
2022-08-18T19:49:02.566Z,100.00
2022-08-18T19:51:40.210Z,100.00
2022-08-18T19:54:28.078Z,100.00
2022-08-18T19:57:23.085Z,100.00
2022-08-18T20:00:21.541Z,100.00
2022-08-18T20:03:24.698Z,100.00
2022-08-18T20:07:07.611Z,100.00
2022-08-18T20:10:26.160Z,100.00
2022-08-18T20:13:10.824Z,100.00
2022-08-18T20:16:28.529Z,100.00
2022-08-18T20:19:38.295Z,100.00
2022-08-18T20:22:30.570Z,100.00
2022-08-18T20:25:17.584Z,100.00
2022-08-18T20:27:59.682Z,100.00
2022-08-18T20:30:46.843Z,100.00
2022-08-18T20:33:26.051Z,100.00
2022-08-18T20:36:13.407Z,100.00
2022-08-18T20:38:50.442Z,100.00
2022-08-18T20:41:34.107Z,100.00
2022-08-18T20:44:42.817Z,100.00
2022-08-18T20:47:31.592Z,100.00
2022-08-18T20:50:31.349Z,100.00
2022-08-18T20:53:35.873Z,100.00
2022-08-18T20:56:31.409Z,99.89
2022-08-18T20:59:23.081Z,99.10
2022-08-18T21:02:13.082Z,99.68
2022-08-18T21:04:49.733Z,98.65
2022-08-18T21:07:39.127Z,99.11
2022-08-18T21:10:19.333Z,100.00
2022-08-18T21:12:56.485Z,100.00
2022-08-18T21:15:29.093Z,99.86
2022-08-18T21:18:21.917Z,99.38
2022-08-18T21:20:51.743Z,99.24
2022-08-18T21:23:41.324Z,99.82
2022-08-18T21:26:16.223Z,100.00
2022-08-18T21:28:58.490Z,100.00
2022-08-18T21:31:43.922Z,100.00
2022-08-18T21:34:33.600Z,100.00
2022-08-18T21:37:07.775Z,100.00
2022-08-18T21:39:46.467Z,99.70
2022-08-18T21:42:32.285Z,99.20
2022-08-18T21:45:00.998Z,97.95
2022-08-18T21:47:31.927Z,99.43
2022-08-18T21:50:23.160Z,98.38
2022-08-18T21:53:00.759Z,98.16
2022-08-18T21:55:42.381Z,98.17
2022-08-18T21:58:16.542Z,99.25
2022-08-18T22:01:06.491Z,98.51
2022-08-18T22:03:36.187Z,100.00
2022-08-18T22:06:38.344Z,99.32
2022-08-18T22:09:29.634Z,97.10
2022-08-18T22:12:39.810Z,96.68
2022-08-18T22:15:27.145Z,96.85
2022-08-18T22:18:02.473Z,98.15
2022-08-18T22:20:53.195Z,97.78
2022-08-18T22:23:55.210Z,97.27
2022-08-18T22:26:34.274Z,96.80
2022-08-18T22:29:10.065Z,96.60
2022-08-18T22:31:42.250Z,97.01
2022-08-18T22:34:27.974Z,96.75
2022-08-18T22:37:04.378Z,97.92
2022-08-18T22:39:58.418Z,98.01
2022-08-18T22:42:32.055Z,98.85
2022-08-18T22:45:04.980Z,98.87
2022-08-18T22:47:43.215Z,99.66
2022-08-18T22:50:12.658Z,99.92
2022-08-18T22:52:44.967Z,100.00
2022-08-18T22:55:18.321Z,100.00
2022-08-18T22:57:55.837Z,100.00
2022-08-18T23:00:24.136Z,100.00
2022-08-18T23:02:53.414Z,100.00
2022-08-18T23:05:20.590Z,100.00
2022-08-18T23:07:47.507Z,100.00
2022-08-18T23:10:16.539Z,100.00
2022-08-18T23:12:44.535Z,100.00
2022-08-18T23:15:11.794Z,100.00
2022-08-18T23:17:40.722Z,100.00
2022-08-18T23:20:12.476Z,100.00
2022-08-18T23:22:45.634Z,100.00
2022-08-18T23:25:13.445Z,100.00
2022-08-18T23:27:41.165Z,100.00
2022-08-18T23:30:09.258Z,100.00
2022-08-18T23:32:36.382Z,100.00
2022-08-18T23:35:03.698Z,100.00
2022-08-18T23:37:31.537Z,100.00
2022-08-18T23:39:58.845Z,100.00
2022-08-18T23:42:26.707Z,100.00
2022-08-18T23:44:53.526Z,100.00
2022-08-18T23:47:20.906Z,100.00
2022-08-18T23:49:48.347Z,100.00
2022-08-18T23:52:15.361Z,99.70
2022-08-18T23:54:42.167Z,100.00
2022-08-18T23:57:09.019Z,100.00
2022-08-18T23:59:36.546Z,100.00
